Terminal Aerodrome Forecast
Issued by NWS

Home | Current Version | Previous Version | Text Only | Print | Product List | Glossary On
Versions: 1 2 3 4 5 6 7 8 9 10 11 12 13 14 15 16 17 18 19 20 21 22 23 24 25 26 27 28 29 30 31 32 33 34 35
000
FTUS46 KEKA 291537 AAA
TAFACV
TAF AMD
KACV 291537Z 2916/3012 VRB05KT P6SM FEW250
     FM291900 33009KT P6SM VCSH FEW250
     FM292300 34010KT 5SM -RA BR OVC015
     FM300300 01005KT P6SM FEW015 SCT035
     FM300600 06004KT P6SM FEW035=

USA.gov is the U.S. government's official web portal to all federal, state and local government web resources and services.